Time;durP1;ratioP1;P1;durP2;ratioP2;P2;SDS_P1;SDS_P2;PMS_P1;PMS_P2;Temp;Humidity;BMP_temperature;BMP_pressure;BME280_temperature;BME280_humidity;BME280_pressure;Samples;Min_cycle;Max_cycle;Signal;HPM_P1;HPM_P2
2022/10/22 00:01:27;;;;;;;4.40;2.58;;;;;;;12.18;100.00;100883.66;5093822;28;20111;-35
2022/10/22 00:03:52;;;;;;;3.97;2.70;;;;;;;12.22;100.00;100888.34;5093606;28;20020;-35
2022/10/22 00:06:18;;;;;;;4.78;3.13;;;;;;;12.22;100.00;100892.94;5094295;28;20048;-35
2022/10/22 00:08:43;;;;;;;8.03;3.40;;;;;;;12.19;100.00;100888.81;5093513;28;20028;-35
2022/10/22 00:11:13;;;;;;;7.97;3.13;;;;;;;12.14;100.00;100896.84;5093951;28;20154;-35
2022/10/22 00:13:39;;;;;;;6.28;3.25;;;;;;;12.10;100.00;100892.97;5093388;28;20484;-35
2022/10/22 00:16:04;;;;;;;7.00;3.03;;;;;;;12.06;100.00;100895.34;5093317;28;20541;-35
2022/10/22 00:18:30;;;;;;;5.27;3.00;;;;;;;12.05;100.00;100891.00;5093508;28;20067;-35
2022/10/22 00:20:55;;;;;;;5.13;2.67;;;;;;;12.00;100.00;100880.03;5094037;28;20104;-35
2022/10/22 00:23:21;;;;;;;5.03;2.80;;;;;;;11.99;100.00;100878.38;5093801;28;20024;-35
2022/10/22 00:25:46;;;;;;;5.63;2.80;;;;;;;12.00;100.00;100899.00;5094398;28;20167;-35
2022/10/22 00:28:11;;;;;;;5.07;3.13;;;;;;;11.87;100.00;100874.91;5093550;28;20250;-35
2022/10/22 00:30:37;;;;;;;4.17;3.33;;;;;;;11.99;100.00;100897.34;5093089;28;20270;-35
2022/10/22 00:33:02;;;;;;;5.23;3.27;;;;;;;12.03;100.00;100895.81;5093558;28;20269;-35
2022/10/22 00:35:28;;;;;;;5.05;3.10;;;;;;;12.02;100.00;100899.59;5093206;28;20035;-35
2022/10/22 00:37:53;;;;;;;4.22;3.13;;;;;;;12.00;100.00;100901.72;5093253;28;20051;-35
2022/10/22 00:40:18;;;;;;;4.73;2.90;;;;;;;11.94;100.00;100891.84;5092936;28;20099;-35
2022/10/22 00:42:43;;;;;;;6.25;3.22;;;;;;;11.97;100.00;100896.78;5093266;28;20490;-35
2022/10/22 00:45:09;;;;;;;3.77;2.90;;;;;;;11.98;100.00;100898.44;5093208;28;20036;-35
2022/10/22 00:47:41;;;;;;;7.47;3.20;;;;;;;11.93;100.00;100906.44;5093381;28;20024;-35
2022/10/22 00:50:13;;;;;;;6.70;3.03;;;;;;;11.85;100.00;100895.97;5093896;28;20093;-35
2022/10/22 00:52:38;;;;;;;7.53;3.25;;;;;;;11.89;100.00;100902.56;5093374;28;20081;-35
2022/10/22 00:55:05;;;;;;;6.32;3.35;;;;;;;11.88;100.00;100902.81;5092796;28;20488;-35
2022/10/22 00:57:33;;;;;;;6.57;3.20;;;;;;;11.78;100.00;100901.50;5093505;28;20028;-35
2022/10/22 00:59:59;;;;;;;4.50;3.10;;;;;;;11.77;100.00;100891.72;5092910;28;20056;-35
2022/10/22 01:02:25;;;;;;;7.72;3.60;;;;;;;11.75;100.00;100891.13;5092740;28;20373;-35
2022/10/22 01:04:50;;;;;;;4.95;3.20;;;;;;;11.74;100.00;100897.59;5093280;28;20028;-35
2022/10/22 01:07:19;;;;;;;6.60;2.90;;;;;;;11.77;100.00;100896.31;5092750;28;20024;-35
2022/10/22 01:10:05;;;;;;;4.50;2.75;;;;;;;11.69;100.00;100897.50;5093217;28;20028;-35
2022/10/22 01:13:08;;;;;;;4.65;2.65;;;;;;;11.71;100.00;100891.84;5092864;28;20028;-35
2022/10/22 01:15:50;;;;;;;7.00;3.20;;;;;;;11.60;100.00;100885.38;5093652;28;20097;-35
2022/10/22 01:18:34;;;;;;;7.50;3.30;;;;;;;11.54;100.00;100889.03;5092893;28;20028;-35
2022/10/22 01:21:06;;;;;;;8.60;3.13;;;;;;;11.61;100.00;100897.84;5092662;28;20121;-35
2022/10/22 01:23:45;;;;;;;7.43;3.22;;;;;;;11.64;100.00;100897.38;5093538;28;20055;-35
2022/10/22 01:26:31;;;;;;;8.07;3.30;;;;;;;11.68;100.00;100895.84;5093125;28;20028;-35
2022/10/22 01:29:13;;;;;;;5.20;3.70;;;;;;;11.71;100.00;100891.84;5092109;28;20044;-35
2022/10/22 01:31:44;;;;;;;5.95;3.28;;;;;;;11.72;100.00;100893.50;5093274;28;20352;-35
2022/10/22 01:34:13;;;;;;;9.73;3.65;;;;;;;11.67;100.00;100886.09;5093235;28;20034;-35
2022/10/22 01:36:40;;;;;;;8.70;3.70;;;;;;;11.64;100.00;100894.69;5092623;28;20028;-35
2022/10/22 01:39:07;;;;;;;7.00;3.85;;;;;;;11.63;100.00;100884.91;5092938;28;20119;-35
2022/10/22 01:41:33;;;;;;;8.10;3.75;;;;;;;11.60;100.00;100894.31;5092915;28;20032;-35
2022/10/22 01:43:59;;;;;;;8.10;3.45;;;;;;;11.55;100.00;100894.19;5092849;28;20032;-35
2022/10/22 01:46:26;;;;;;;4.87;3.53;;;;;;;11.56;100.00;100892.31;5092640;28;20023;-35
2022/10/22 01:49:09;;;;;;;8.38;3.38;;;;;;;11.63;100.00;100892.22;5096667;28;20032;-35
2022/10/22 01:52:34;;;;;;;8.20;3.60;;;;;;;11.66;100.00;100891.72;5096634;28;20484;-35
2022/10/22 01:55:24;;;;;;;7.20;3.30;;;;;;;11.60;100.00;100885.38;5074313;28;20415;-35
2022/10/22 01:58:13;;;;;;;9.60;3.50;;;;;;;11.47;100.00;100877.50;5057011;28;20500;-35
2022/10/22 02:00:48;;;;;;;7.10;3.38;;;;;;;11.53;100.00;100896.34;5073880;28;20047;-35
2022/10/22 02:03:19;;;;;;;5.95;3.13;;;;;;;11.48;100.00;100888.09;5073906;28;20032;-35
2022/10/22 02:05:54;;;;;;;10.15;3.35;;;;;;;11.53;100.00;100899.03;5074170;28;20432;-35
2022/10/22 02:08:23;;;;;;;7.72;3.47;;;;;;;11.47;100.00;100891.06;5073440;28;20033;-35
2022/10/22 02:10:49;;;;;;;6.00;3.65;;;;;;;11.51;100.00;100893.03;5073385;28;20045;-35
2022/10/22 02:13:17;;;;;;;;;;;;;;;11.59;100.00;100897.28;5073827;28;20191;-35
2022/10/22 02:15:47;;;;;;;5.15;3.22;;;;;;;11.59;100.00;100900.81;5073321;28;19912;-36
2022/10/22 02:18:14;;;;;;;9.40;4.80;;;;;;;11.65;100.00;100890.91;5073832;28;20041;-35
2022/10/22 02:20:41;;;;;;;6.78;4.20;;;;;;;11.69;100.00;100892.06;5073648;28;20106;-35
2022/10/22 02:23:07;;;;;;;7.85;3.80;;;;;;;11.69;100.00;100897.50;5073379;28;20475;-35
2022/10/22 02:25:34;;;;;;;;;;;;;;;11.68;100.00;100890.44;5073472;28;20029;-35
2022/10/22 02:28:05;;;;;;;;;;;;;;;11.73;100.00;100890.56;5074098;28;19909;-35
2022/10/22 02:30:32;;;;;;;6.38;3.83;;;;;;;11.70;100.00;100882.88;5087876;28;19958;-35
2022/10/22 02:33:16;;;;;;;9.02;3.60;;;;;;;11.67;100.00;100885.28;5096130;28;20036;-35
2022/10/22 02:35:43;;;;;;;7.80;4.20;;;;;;;11.66;100.00;100880.88;5095601;28;20028;-35
2022/10/22 02:38:10;;;;;;;6.85;3.50;;;;;;;11.59;100.00;100878.31;5095972;28;20050;-35
2022/10/22 02:40:36;;;;;;;5.50;3.75;;;;;;;11.74;100.00;100888.66;5095948;28;20028;-35
2022/10/22 02:43:04;;;;;;;7.60;3.72;;;;;;;11.67;100.00;100887.97;5095172;28;20039;-35
2022/10/22 02:45:29;;;;;;;7.15;3.78;;;;;;;11.73;100.00;100889.72;5095633;28;20404;-35
2022/10/22 02:47:55;;;;;;;10.18;3.80;;;;;;;11.76;100.00;100886.53;5096036;28;20059;-35
2022/10/22 02:50:20;;;;;;;5.82;3.70;;;;;;;11.77;100.00;100888.19;5095241;28;20140;-35
2022/10/22 02:52:46;;;;;;;8.70;4.00;;;;;;;11.82;100.00;100894.56;5095712;28;20035;-35
2022/10/22 02:55:11;;;;;;;6.40;4.43;;;;;;;11.78;100.00;100881.72;5095774;28;20040;-36
2022/10/22 02:57:36;;;;;;;11.93;4.67;;;;;;;11.91;100.00;100902.31;5094971;28;20069;-35
2022/10/22 03:00:03;;;;;;;8.87;4.13;;;;;;;11.93;100.00;100894.78;5095243;28;20536;-35
2022/10/22 03:02:29;;;;;;;6.22;4.40;;;;;;;11.94;100.00;100880.19;5095553;28;20258;-35
2022/10/22 03:04:54;;;;;;;9.27;4.03;;;;;;;11.91;100.00;100884.19;5095012;28;20329;-35
2022/10/22 03:07:19;;;;;;;9.80;4.47;;;;;;;12.02;100.00;100894.19;5095048;28;20020;-35
2022/10/22 03:09:45;;;;;;;15.57;4.67;;;;;;;12.04;100.00;100894.75;5095270;28;20039;-35
2022/10/22 03:12:10;;;;;;;10.38;4.35;;;;;;;12.00;100.00;100896.28;5095182;28;20027;-35
2022/10/22 03:14:36;;;;;;;7.67;3.70;;;;;;;12.03;100.00;100906.66;5095291;28;20111;-35
2022/10/22 03:17:01;;;;;;;8.33;4.30;;;;;;;12.00;100.00;100885.44;5095384;28;20286;-35
2022/10/22 03:19:26;;;;;;;6.85;3.88;;;;;;;12.08;100.00;100897.81;5094343;28;20417;-35
2022/10/22 03:21:56;;;;;;;8.65;4.68;;;;;;;12.05;100.00;100904.56;5094437;28;20032;-35
2022/10/22 03:24:25;;;;;;;5.85;4.07;;;;;;;12.09;100.00;100903.00;5093284;28;20453;-35
2022/10/22 03:26:51;;;;;;;9.15;3.97;;;;;;;12.02;100.00;100898.78;5095083;28;20028;-35
2022/10/22 03:29:20;;;;;;;7.03;3.67;;;;;;;12.10;100.00;100907.38;5094969;28;20423;-35
2022/10/22 03:31:45;;;;;;;12.93;4.18;;;;;;;12.11;100.00;100897.34;5094500;28;20028;-35
2022/10/22 03:34:12;;;;;;;8.13;4.23;;;;;;;12.08;100.00;100904.06;5094759;28;20113;-35
2022/10/22 03:36:38;;;;;;;8.02;3.83;;;;;;;12.09;100.00;100919.25;5094598;28;20092;-35
2022/10/22 03:39:06;;;;;;;8.32;4.20;;;;;;;12.17;100.00;100915.34;5094627;28;20082;-35
2022/10/22 03:41:32;;;;;;;9.57;4.10;;;;;;;12.22;100.00;100920.06;5094353;28;20111;-35
2022/10/22 03:43:59;;;;;;;;;;;;;;;12.23;100.00;100921.72;5095232;28;20035;-35
2022/10/22 03:46:24;;;;;;;9.25;3.65;;;;;;;12.16;100.00;100912.91;5094198;28;19908;-35
2022/10/22 03:48:49;;;;;;;10.43;3.73;;;;;;;12.18;100.00;100927.03;5094207;28;20032;-35
2022/10/22 03:51:15;;;;;;;8.63;3.80;;;;;;;12.18;100.00;100929.75;5094188;28;20024;-35
2022/10/22 03:53:40;;;;;;;9.63;4.50;;;;;;;12.20;100.00;100928.44;5094781;28;20089;-35
2022/10/22 03:56:09;;;;;;;9.33;4.33;;;;;;;12.18;100.00;100935.97;5094106;28;20368;-35
2022/10/22 03:58:35;;;;;;;6.82;3.47;;;;;;;12.08;100.00;100914.91;5094593;28;20052;-35
2022/10/22 04:01:06;;;;;;;8.32;3.78;;;;;;;12.19;100.00;100936.81;5093937;28;20456;-35
2022/10/22 04:03:32;;;;;;;10.63;4.90;;;;;;;12.16;100.00;100938.13;5094658;28;20361;-35
2022/10/22 04:06:02;;;;;;;10.05;3.78;;;;;;;12.19;100.00;100936.81;5094056;28;20032;-35
2022/10/22 04:08:27;;;;;;;9.68;4.00;;;;;;;12.17;100.00;100945.19;5093998;28;20058;-35
2022/10/22 04:10:52;;;;;;;9.13;3.73;;;;;;;12.08;100.00;100942.00;5093124;28;20133;-35
2022/10/22 04:13:18;;;;;;;9.40;4.07;;;;;;;12.05;100.00;100933.53;5093739;28;20578;-35
2022/10/22 04:15:43;;;;;;;9.73;4.70;;;;;;;12.15;100.00;100946.47;5094111;28;20036;-35
2022/10/22 04:18:08;;;;;;;8.53;4.30;;;;;;;12.18;100.00;100946.81;5093563;28;20035;-35
2022/10/22 04:20:33;;;;;;;11.13;4.23;;;;;;;12.19;100.00;100950.34;5093811;28;20448;-35
2022/10/22 04:22:59;;;;;;;11.43;3.93;;;;;;;12.06;100.00;100924.34;5093965;28;20032;-35
2022/10/22 04:25:24;;;;;;;9.77;3.97;;;;;;;12.18;100.00;100946.81;5093200;28;20031;-35
2022/10/22 04:27:49;;;;;;;9.95;3.80;;;;;;;12.17;100.00;100955.19;5093399;28;20073;-35
2022/10/22 04:30:15;;;;;;;12.27;4.93;;;;;;;12.18;100.00;100952.25;5093687;28;20074;-35
2022/10/22 04:32:40;;;;;;;12.50;4.43;;;;;;;12.13;100.00;100937.75;5094217;28;20058;-35
2022/10/22 04:35:06;;;;;;;9.03;4.00;;;;;;;12.08;100.00;100925.75;5093424;28;20407;-35
2022/10/22 04:37:31;;;;;;;13.25;4.75;;;;;;;12.22;100.00;100952.59;5093300;28;20063;-35
2022/10/22 04:39:57;;;;;;;14.52;4.90;;;;;;;12.18;100.00;100940.59;5093147;28;20107;-35
2022/10/22 04:42:22;;;;;;;8.43;4.28;;;;;;;12.13;100.00;100937.75;5093267;28;20468;-35
2022/10/22 04:44:47;;;;;;;10.07;4.23;;;;;;;12.25;100.00;100952.09;5093239;28;20032;-35
2022/10/22 04:47:13;;;;;;;10.57;4.00;;;;;;;12.21;100.00;100951.78;5093215;28;20024;-35
2022/10/22 04:49:39;;;;;;;10.20;4.33;;;;;;;12.19;100.00;100953.88;5093176;28;20471;-35
2022/10/22 04:52:04;;;;;;;9.40;4.10;;;;;;;12.23;100.00;100952.34;5092952;28;20028;-35
2022/10/22 04:54:30;;;;;;;12.07;3.90;;;;;;;12.23;100.00;100956.94;5092862;28;20439;-35
2022/10/22 04:56:55;;;;;;;13.40;4.43;;;;;;;12.23;100.00;100965.91;5092888;28;20085;-35
2022/10/22 04:59:20;;;;;;;12.70;4.10;;;;;;;12.23;100.00;100962.38;5092952;28;20052;-35
2022/10/22 05:01:46;;;;;;;11.93;4.30;;;;;;;12.19;100.00;100959.31;5093414;28;20028;-35
2022/10/22 05:04:14;;;;;;;9.77;4.03;;;;;;;12.27;100.00;100968.97;5093643;28;20361;-35
2022/10/22 05:06:39;;;;;;;11.80;4.43;;;;;;;12.27;100.00;100968.97;5093398;28;20039;-35
2022/10/22 05:09:07;;;;;;;13.85;4.32;;;;;;;12.23;100.00;100965.09;5092360;28;20108;-35
2022/10/22 05:11:35;;;;;;;10.55;3.83;;;;;;;12.24;100.00;100966.72;5092945;28;20476;-35
2022/10/22 05:14:04;;;;;;;10.05;3.88;;;;;;;12.28;100.00;100976.03;5093474;28;20024;-35
2022/10/22 05:16:30;;;;;;;12.35;4.20;;;;;;;12.28;100.00;100970.63;5092936;28;20024;-35
2022/10/22 05:18:57;;;;;;;14.43;4.47;;;;;;;12.29;100.00;100972.25;5093589;28;20402;-35
2022/10/22 05:21:22;;;;;;;13.18;4.15;;;;;;;12.30;100.00;100976.63;5094034;28;20374;-35
2022/10/22 05:23:49;;;;;;;10.60;3.80;;;;;;;12.28;100.00;100976.84;5096776;28;20032;-35
2022/10/22 05:26:17;;;;;;;12.13;4.13;;;;;;;12.31;100.00;100983.72;5095575;28;20028;-35
2022/10/22 05:28:42;;;;;;;13.48;4.47;;;;;;;12.33;100.00;100981.56;5097180;28;20064;-35
2022/10/22 05:31:10;;;;;;;9.23;3.90;;;;;;;12.34;100.00;100973.19;5097100;28;20036;-35
2022/10/22 05:33:35;;;;;;;8.70;3.67;;;;;;;12.35;100.00;100972.16;5097030;28;20464;-35
2022/10/22 05:36:03;;;;;;;11.48;4.38;;;;;;;12.40;100.00;100966.00;5096744;28;20039;-35
2022/10/22 05:38:29;;;;;;;13.50;4.30;;;;;;;12.36;100.00;100962.13;5096836;28;20382;-35
2022/10/22 05:41:03;;;;;;;12.47;3.93;;;;;;;12.44;100.00;100971.75;5096286;28;20028;-35
2022/10/22 05:43:28;;;;;;;8.02;3.25;;;;;;;12.42;100.00;100974.72;5096837;28;20039;-35
2022/10/22 05:45:54;;;;;;;13.40;4.22;;;;;;;12.34;100.00;100972.38;5096708;28;20028;-35
2022/10/22 05:48:20;;;;;;;11.77;3.58;;;;;;;12.39;100.00;100986.03;5096480;28;20372;-35
2022/10/22 05:50:49;;;;;;;13.50;4.00;;;;;;;12.38;100.00;100985.19;5096129;28;20024;-35
2022/10/22 05:53:17;;;;;;;11.93;4.15;;;;;;;12.44;100.00;100988.84;5097508;28;20035;-35
2022/10/22 05:55:43;;;;;;;9.23;3.92;;;;;;;12.44;100.00;100996.97;5096134;28;20055;-35
2022/10/22 05:58:10;;;;;;;9.18;3.60;;;;;;;12.43;100.00;101003.47;5096117;28;20067;-35
2022/10/22 06:00:36;;;;;;;12.93;4.10;;;;;;;12.44;100.00;101001.59;5096006;28;20100;-35
2022/10/22 06:03:01;;;;;;;13.23;4.13;;;;;;;12.36;100.00;100992.78;5096551;28;20028;-35
2022/10/22 06:05:26;;;;;;;11.40;3.93;;;;;;;12.42;100.00;101004.53;5096874;28;20028;-35
2022/10/22 06:07:52;;;;;;;11.75;4.05;;;;;;;12.35;100.00;100995.72;5096457;28;20094;-35
2022/10/22 06:10:20;;;;;;;13.85;3.53;;;;;;;12.34;100.00;100999.47;5096085;28;20396;-35
2022/10/22 06:12:46;;;;;;;7.97;3.05;;;;;;;12.41;100.00;101013.75;5096141;28;20414;-35
2022/10/22 06:15:14;;;;;;;10.20;3.22;;;;;;;12.34;100.00;101005.72;5095988;28;20102;-35
2022/10/22 06:17:39;;;;;;;9.30;2.90;;;;;;;12.41;100.00;101011.03;5096220;28;20028;-35
2022/10/22 06:20:05;;;;;;;8.38;3.13;;;;;;;12.35;100.00;101014.72;5095860;28;20024;-35
2022/10/22 06:22:31;;;;;;;9.55;3.35;;;;;;;12.41;100.00;101037.34;5096382;28;20097;-35
2022/10/22 06:24:57;;;;;;;6.40;2.70;;;;;;;12.42;100.00;101039.78;5095765;28;20059;-35
2022/10/22 06:27:22;;;;;;;10.93;3.17;;;;;;;12.42;100.00;101030.84;5096028;28;20035;-35
2022/10/22 06:29:47;;;;;;;11.77;2.80;;;;;;;12.42;100.00;101045.22;5095416;28;20036;-35
2022/10/22 06:32:13;;;;;;;14.13;3.30;;;;;;;12.41;100.00;101049.00;5096100;28;20070;-35
2022/10/22 06:34:38;;;;;;;10.27;2.85;;;;;;;12.42;100.00;101044.41;5095231;28;20111;-35
2022/10/22 06:37:04;;;;;;;8.07;2.95;;;;;;;12.44;100.00;101059.34;5095771;28;20464;-35
2022/10/22 06:39:29;;;;;;;11.82;3.42;;;;;;;12.40;100.00;101050.06;5095244;28;20073;-35
2022/10/22 06:41:54;;;;;;;9.50;2.47;;;;;;;12.48;100.00;101062.44;5095755;28;20024;-35
2022/10/22 06:44:20;;;;;;;10.43;3.10;;;;;;;12.48;100.00;101062.44;5095841;28;20270;-35
2022/10/22 06:46:50;;;;;;;7.75;2.67;;;;;;;12.46;100.00;101068.09;5095654;28;20028;-35
2022/10/22 06:49:16;;;;;;;8.95;2.60;;;;;;;12.46;100.00;101072.69;5095657;28;20032;-35
2022/10/22 06:51:42;;;;;;;8.90;3.13;;;;;;;12.48;100.00;101076.00;5095281;28;20020;-35
2022/10/22 06:54:08;;;;;;;10.10;2.83;;;;;;;12.43;100.00;101074.00;5095869;28;20036;-35
2022/10/22 06:56:33;;;;;;;8.07;2.50;;;;;;;12.44;100.00;101081.06;5094885;28;20032;-35
2022/10/22 06:58:59;;;;;;;10.07;3.10;;;;;;;12.49;100.00;101092.03;5095637;28;20059;-35
2022/10/22 07:01:26;;;;;;;8.38;2.63;;;;;;;12.50;100.00;101101.81;5095023;28;20032;-35
2022/10/22 07:03:53;;;;;;;11.25;2.50;;;;;;;12.47;100.00;101094.16;5094875;28;20024;-35
2022/10/22 07:06:19;;;;;;;8.98;2.42;;;;;;;12.50;100.00;101101.81;5094762;28;20032;-35
2022/10/22 07:08:45;;;;;;;8.70;2.92;;;;;;;12.51;100.00;101098.03;5094972;28;20115;-35
2022/10/22 07:11:24;;;;;;;8.43;2.30;;;;;;;12.51;100.00;101105.38;5095509;28;20060;-35
2022/10/22 07:13:52;;;;;;;9.77;2.67;;;;;;;12.51;100.00;101097.22;5093741;28;20348;-35
2022/10/22 07:16:18;;;;;;;8.73;2.83;;;;;;;12.58;100.00;101115.00;5094993;28;20024;-35
2022/10/22 07:18:44;;;;;;;9.90;2.47;;;;;;;12.55;100.00;101106.53;5094791;28;20039;-35
2022/10/22 07:21:10;;;;;;;;;;;;;;;12.68;100.00;101119.00;5095234;28;20025;-35
2022/10/22 07:23:37;;;;;;;9.60;2.17;;;;;;;12.70;100.00;101125.03;5095286;28;19953;-35
2022/10/22 07:26:05;;;;;;;8.55;2.78;;;;;;;12.71;100.00;101129.41;5094456;28;20418;-35
2022/10/22 07:28:32;;;;;;;8.85;2.30;;;;;;;12.68;100.00;101119.84;5127253;27;20123;-35
2022/10/22 07:30:57;;;;;;;10.43;2.22;;;;;;;12.73;100.00;101124.53;5095309;28;20099;-35
2022/10/22 07:33:23;;;;;;;9.63;2.95;;;;;;;12.78;100.00;101132.78;5095076;28;20105;-35
2022/10/22 07:35:48;;;;;;;9.00;2.28;;;;;;;12.82;100.00;101125.84;5094720;28;20027;-35
2022/10/22 07:38:14;;;;;;;7.57;2.33;;;;;;;12.87;100.00;101136.78;5094610;28;20046;-35
2022/10/22 07:40:39;;;;;;;9.00;2.53;;;;;;;12.85;100.00;101119.94;5094479;28;20112;-35
2022/10/22 07:43:05;;;;;;;6.70;2.53;;;;;;;12.99;100.00;101142.22;5094545;28;20028;-35
2022/10/22 07:45:31;;;;;;;8.52;2.75;;;;;;;13.09;100.00;101137.81;5093402;28;20288;-35
2022/10/22 07:47:56;;;;;;;7.23;2.47;;;;;;;13.13;100.00;101130.84;5093777;28;20500;-35
2022/10/22 07:50:21;;;;;;;8.98;2.70;;;;;;;13.28;100.00;101145.81;5094259;28;20024;-35
2022/10/22 07:52:47;;;;;;;9.60;2.28;;;;;;;13.35;100.00;101141.88;5094112;28;20042;-35
2022/10/22 07:55:12;;;;;;;7.00;2.23;;;;;;;13.45;100.00;101135.81;5094304;28;20058;-35
2022/10/22 07:57:40;;;;;;;8.13;2.77;;;;;;;13.58;100.00;101140.97;5094358;28;20258;-35
2022/10/22 08:00:07;;;;;;;8.52;2.38;;;;;;;13.71;100.00;101150.69;5094269;28;20193;-35
2022/10/22 08:02:32;;;;;;;7.32;2.30;;;;;;;13.77;100.00;101143.47;5126989;27;20055;-36
2022/10/22 08:04:58;;;;;;;8.27;2.37;;;;;;;13.90;100.00;101145.88;5093708;28;20027;-35
2022/10/22 08:07:24;;;;;;;7.35;2.28;;;;;;;14.00;100.00;101148.75;5093656;28;20472;-35
2022/10/22 08:09:49;;;;;;;5.70;1.70;;;;;;;14.06;100.00;101157.84;5094208;28;20036;-36
2022/10/22 08:12:15;;;;;;;6.32;1.80;;;;;;;14.13;100.00;101163.94;5094268;28;20448;-35
2022/10/22 08:14:40;;;;;;;5.20;1.73;;;;;;;14.20;100.00;101156.44;5093636;28;20039;-35
2022/10/22 08:17:05;;;;;;;9.60;2.00;;;;;;;14.26;100.00;101168.22;5093493;28;20392;-36
2022/10/22 08:19:31;;;;;;;11.30;2.42;;;;;;;14.25;100.00;101167.41;5094091;28;20102;-35
2022/10/22 08:21:57;;;;;;;9.02;2.22;;;;;;;14.33;100.00;101171.59;5093587;28;20028;-35
2022/10/22 08:24:22;;;;;;;7.18;2.33;;;;;;;14.35;100.00;101177.63;5093653;28;20035;-36
2022/10/22 08:26:48;;;;;;;8.77;1.90;;;;;;;14.38;100.00;101185.28;5093806;28;20035;-35
2022/10/22 08:29:13;;;;;;;;;;;;;;;14.46;100.00;101174.00;5094516;28;20055;-36
2022/10/22 08:31:38;;;;;;;8.43;1.97;;;;;;;14.45;100.00;101187.84;5093450;28;20279;-35
2022/10/22 08:34:04;;;;;;;9.23;2.20;;;;;;;14.55;100.00;101201.66;5093443;28;20285;-34
2022/10/22 08:36:30;;;;;;;8.55;2.40;;;;;;;14.54;100.00;101198.09;5093124;28;20266;-35
2022/10/22 08:38:55;;;;;;;8.77;2.35;;;;;;;14.53;100.00;101207.31;5093826;28;20474;-34
2022/10/22 08:41:22;;;;;;;;;;;;;;;14.55;100.00;101216.06;5093794;28;20036;-35
2022/10/22 08:44:06;;;;;;;9.18;2.05;;;;;;;14.50;100.00;101215.16;5094069;28;19908;-35
2022/10/22 08:47:14;;;;;;;7.85;2.17;;;;;;;14.52;100.00;101218.47;5093718;28;20345;-35
2022/10/22 08:49:41;;;;;;;8.43;1.90;;;;;;;14.47;100.00;101208.28;5091012;28;20062;-34
2022/10/22 08:52:12;;;;;;;9.65;2.20;;;;;;;14.51;100.00;101222.25;5090695;28;20047;-35
2022/10/22 08:54:51;;;;;;;8.25;2.10;;;;;;;14.59;100.00;101230.00;5091187;28;20145;-35
2022/10/22 08:57:35;;;;;;;5.47;1.83;;;;;;;14.58;100.00;101231.06;5091029;28;20565;-34
2022/10/22 09:00:10;;;;;;;9.45;2.38;;;;;;;14.57;100.00;101226.69;5090582;28;20519;-34
2022/10/22 09:03:12;;;;;;;8.57;2.17;;;;;;;14.61;100.00;101236.03;5090738;28;20500;-35
2022/10/22 09:05:55;;;;;;;6.30;2.13;;;;;;;14.59;100.00;101228.13;5090931;28;20032;-34
2022/10/22 09:08:22;;;;;;;7.82;2.83;;;;;;;14.59;100.00;101243.59;5090798;28;20087;-35
2022/10/22 09:10:52;;;;;;;7.10;1.75;;;;;;;14.58;100.00;101237.31;5090967;28;20101;-35
2022/10/22 09:13:20;;;;;;;9.25;2.10;;;;;;;14.57;100.00;101235.69;5090638;28;20523;-36
2022/10/22 09:15:58;;;;;;;10.13;2.15;;;;;;;14.66;100.00;101249.72;5090591;28;20119;-36
2022/10/22 09:19:05;;;;;;;6.30;2.00;;;;;;;14.71;100.00;101247.06;5090568;28;20032;-35
2022/10/22 09:21:55;;;;;;;8.13;2.15;;;;;;;14.72;100.00;101256.88;5090111;28;20073;-35
2022/10/22 09:24:37;;;;;;;8.00;1.88;;;;;;;14.74;100.00;101256.63;5090513;28;20064;-36
2022/10/22 09:27:15;;;;;;;8.52;2.17;;;;;;;14.78;100.00;101264.03;5091761;28;20040;-35
2022/10/22 09:29:40;;;;;;;6.10;1.90;;;;;;;14.77;100.00;101265.13;5092848;28;20036;-35
2022/10/22 09:32:06;;;;;;;7.63;2.20;;;;;;;14.78;100.00;101269.47;5092802;28;20073;-35
2022/10/22 09:34:32;;;;;;;10.80;2.63;;;;;;;14.74;100.00;101264.78;5093317;28;20035;-35
2022/10/22 09:37:02;;;;;;;7.07;2.17;;;;;;;14.81;100.00;101274.44;5092507;28;20612;-35
2022/10/22 09:39:33;;;;;;;14.18;2.80;;;;;;;14.83;100.00;101283.19;5092637;28;20032;-35
2022/10/22 09:41:59;;;;;;;7.53;2.47;;;;;;;14.84;100.00;101286.75;5092681;28;20024;-36
2022/10/22 09:44:24;;;;;;;5.75;2.30;;;;;;;14.87;100.00;101280.78;5093170;28;20027;-35
2022/10/22 09:46:49;;;;;;;9.25;2.60;;;;;;;14.89;100.00;101284.94;5092912;28;20035;-35
2022/10/22 09:49:18;;;;;;;8.57;2.55;;;;;;;14.93;100.00;101293.41;5092878;28;20457;-36
2022/10/22 09:51:56;;;;;;;7.82;1.90;;;;;;;14.93;100.00;101296.13;5092573;28;20039;-36
2022/10/22 09:54:37;;;;;;;9.45;2.45;;;;;;;14.96;100.00;101303.00;5092823;28;20024;-35
2022/10/22 09:57:20;;;;;;;6.30;1.80;;;;;;;14.94;100.00;101295.91;5092565;28;20042;-36
2022/10/22 09:59:49;;;;;;;7.13;1.83;;;;;;;14.93;100.00;101307.88;5090997;28;20048;-35
2022/10/22 10:02:17;;;;;;;9.68;2.42;;;;;;;14.83;100.00;101287.81;5092482;28;20484;-36
2022/10/22 10:05:02;;;;;;;8.95;2.13;;;;;;;14.96;100.00;101320.16;5092921;28;20047;-35
2022/10/22 10:07:33;;;;;;;7.90;2.15;;;;;;;14.94;100.00;101323.13;5091499;28;20066;-35
2022/10/22 10:09:58;;;;;;;9.63;2.53;;;;;;;14.95;100.00;101329.41;5095744;28;20425;-36
2022/10/22 10:12:26;;;;;;;7.97;1.95;;;;;;;14.96;100.00;101325.59;5095978;28;20110;-35
2022/10/22 10:15:01;;;;;;;6.72;2.00;;;;;;;14.92;100.00;101327.97;5096396;28;20032;-35
2022/10/22 10:17:51;;;;;;;7.43;2.20;;;;;;;14.97;100.00;101329.13;5096292;28;20038;-36
2022/10/22 10:20:28;;;;;;;8.02;2.15;;;;;;;15.02;100.00;101334.66;5095539;28;20099;-35
2022/10/22 10:23:13;;;;;;;7.72;2.05;;;;;;;15.11;100.00;101334.00;5095915;28;20036;-35
2022/10/22 10:25:53;;;;;;;9.05;2.40;;;;;;;15.17;100.00;101333.00;5095895;28;20062;-35
2022/10/22 10:28:18;;;;;;;7.15;1.67;;;;;;;15.31;100.00;101338.09;5096104;28;20032;-35
2022/10/22 10:30:53;;;;;;;9.70;2.60;;;;;;;15.35;100.00;101339.25;5095420;28;20120;-35
2022/10/22 10:33:55;;;;;;;8.80;1.98;;;;;;;15.45;100.00;101339.38;5095691;28;20494;-35
2022/10/22 10:36:33;;;;;;;9.63;1.88;;;;;;;15.48;100.00;101319.00;5095937;28;20028;-36
2022/10/22 10:39:26;;;;;;;7.95;1.90;;;;;;;15.77;100.00;101342.31;5095648;28;20039;-36
2022/10/22 10:42:04;;;;;;;11.23;2.10;;;;;;;16.03;100.00;101339.88;5095769;28;20385;-36
2022/10/22 10:44:59;;;;;;;8.93;2.13;;;;;;;16.25;100.00;101337.97;5095320;28;20499;-36
2022/10/22 10:47:41;;;;;;;8.60;2.10;;;;;;;16.39;100.00;101343.81;5072897;28;20051;-36
2022/10/22 10:50:55;;;;;;;8.80;1.80;;;;;;;16.52;100.00;101346.13;5073174;28;20037;-36
2022/10/22 10:53:29;;;;;;;7.53;2.05;;;;;;;16.63;100.00;101347.06;5013392;28;20061;-36
2022/10/22 10:56:13;;;;;;;10.30;1.73;;;;;;;16.64;100.00;101351.44;5013152;28;20041;-36
2022/10/22 10:59:04;;;;;;;10.13;1.98;;;;;;;16.63;99.70;101344.31;5013322;28;20069;-36
2022/10/22 11:01:49;;;;;;;8.77;2.30;;;;;;;16.58;98.63;101339.63;5013642;28;20069;-36
2022/10/22 11:04:20;;;;;;;7.15;1.48;;;;;;;16.64;99.08;101341.34;5013113;28;20157;-36
2022/10/22 11:06:45;;;;;;;11.70;2.30;;;;;;;16.62;97.87;101345.41;5013208;28;20041;-36
2022/10/22 11:09:33;;;;;;;10.13;2.30;;;;;;;16.57;97.92;101348.91;5012945;28;20473;-36
2022/10/22 11:12:03;;;;;;;10.85;2.15;;;;;;;16.60;99.21;101351.16;5013286;28;20050;-36
2022/10/22 11:14:34;;;;;;;11.77;2.33;;;;;;;16.81;98.67;101348.63;5013215;28;20133;-36
2022/10/22 11:17:07;;;;;;;10.00;2.10;;;;;;;16.93;96.51;101352.84;5012869;28;20103;-36
2022/10/22 11:19:35;;;;;;;10.52;2.42;;;;;;;17.02;95.00;101344.13;5012282;28;20044;-36
2022/10/22 11:22:13;;;;;;;8.40;2.03;;;;;;;17.20;97.16;101360.94;5012506;28;20041;-36
2022/10/22 11:24:45;;;;;;;10.27;2.22;;;;;;;17.15;96.97;101351.88;5013067;28;20121;-36
2022/10/22 11:27:20;;;;;;;7.03;1.98;;;;;;;17.02;96.94;101347.69;5012876;28;20434;-36
2022/10/22 11:29:51;;;;;;;10.60;2.10;;;;;;;16.94;96.16;101357.22;5091486;28;20040;-36